sensor_id;sensor_type;location;lat;lon;timestamp;P1;durP1;ratioP1;P2;durP2;ratioP2
36789;SDS011;22740;52.182;8.780;2022-12-29T00:03:53;2.22;;;0.80;;
36789;SDS011;22740;52.182;8.780;2022-12-29T00:09:55;1.83;;;0.80;;
36789;SDS011;22740;52.182;8.780;2022-12-29T00:15:57;1.85;;;0.75;;
36789;SDS011;22740;52.182;8.780;2022-12-29T00:21:59;1.65;;;0.70;;
36789;SDS011;22740;52.182;8.780;2022-12-29T00:28:19;4.68;;;1.00;;
36789;SDS011;22740;52.182;8.780;2022-12-29T00:34:40;2.17;;;0.90;;
36789;SDS011;22740;52.182;8.780;2022-12-29T00:41:00;1.27;;;0.80;;
36789;SDS011;22740;52.182;8.780;2022-12-29T00:47:21;2.28;;;1.05;;
36789;SDS011;22740;52.182;8.780;2022-12-29T00:53:22;2.53;;;1.08;;
36789;SDS011;22740;52.182;8.780;2022-12-29T00:59:24;1.67;;;0.90;;
36789;SDS011;22740;52.182;8.780;2022-12-29T01:05:27;2.58;;;0.70;;
36789;SDS011;22740;52.182;8.780;2022-12-29T01:11:28;2.10;;;0.90;;
36789;SDS011;22740;52.182;8.780;2022-12-29T01:17:30;2.88;;;0.70;;
36789;SDS011;22740;52.182;8.780;2022-12-29T01:23:32;1.83;;;0.80;;
36789;SDS011;22740;52.182;8.780;2022-12-29T01:29:34;1.15;;;0.60;;
36789;SDS011;22740;52.182;8.780;2022-12-29T01:35:36;3.05;;;0.50;;
36789;SDS011;22740;52.182;8.780;2022-12-29T01:41:38;1.90;;;0.70;;
36789;SDS011;22740;52.182;8.780;2022-12-29T01:47:41;1.05;;;0.60;;
36789;SDS011;22740;52.182;8.780;2022-12-29T01:53:44;1.75;;;0.68;;
36789;SDS011;22740;52.182;8.780;2022-12-29T01:59:50;3.00;;;0.70;;
36789;SDS011;22740;52.182;8.780;2022-12-29T02:05:57;0.88;;;0.40;;
36789;SDS011;22740;52.182;8.780;2022-12-29T02:12:05;2.40;;;0.45;;
36789;SDS011;22740;52.182;8.780;2022-12-29T02:55:55;0.68;;;0.40;;
36789;SDS011;22740;52.182;8.780;2022-12-29T03:02:11;0.52;;;0.38;;
36789;SDS011;22740;52.182;8.780;2022-12-29T03:08:23;1.23;;;0.40;;
36789;SDS011;22740;52.182;8.780;2022-12-29T03:14:32;0.30;;;0.30;;
36789;SDS011;22740;52.182;8.780;2022-12-29T03:20:58;0.47;;;0.30;;
36789;SDS011;22740;52.182;8.780;2022-12-29T03:27:08;0.35;;;0.22;;
36789;SDS011;22740;52.182;8.780;2022-12-29T03:33:15;0.70;;;0.40;;
36789;SDS011;22740;52.182;8.780;2022-12-29T03:39:20;0.45;;;0.20;;
36789;SDS011;22740;52.182;8.780;2022-12-29T03:51:26;0.75;;;0.40;;
36789;SDS011;22740;52.182;8.780;2022-12-29T03:57:28;0.63;;;0.30;;
36789;SDS011;22740;52.182;8.780;2022-12-29T04:03:30;0.63;;;0.20;;
36789;SDS011;22740;52.182;8.780;2022-12-29T04:09:32;0.73;;;0.30;;
36789;SDS011;22740;52.182;8.780;2022-12-29T04:15:34;1.30;;;0.38;;
36789;SDS011;22740;52.182;8.780;2022-12-29T04:21:36;1.60;;;0.40;;
36789;SDS011;22740;52.182;8.780;2022-12-29T04:27:38;0.95;;;0.30;;
36789;SDS011;22740;52.182;8.780;2022-12-29T04:33:40;1.15;;;0.40;;
36789;SDS011;22740;52.182;8.780;2022-12-29T04:39:41;0.43;;;0.30;;
36789;SDS011;22740;52.182;8.780;2022-12-29T04:45:46;1.00;;;0.43;;
36789;SDS011;22740;52.182;8.780;2022-12-29T04:51:48;1.42;;;0.40;;
36789;SDS011;22740;52.182;8.780;2022-12-29T04:57:50;2.72;;;0.50;;
36789;SDS011;22740;52.182;8.780;2022-12-29T05:03:52;1.25;;;0.43;;
36789;SDS011;22740;52.182;8.780;2022-12-29T05:09:54;1.58;;;0.50;;
36789;SDS011;22740;52.182;8.780;2022-12-29T05:15:56;1.63;;;0.60;;
36789;SDS011;22740;52.182;8.780;2022-12-29T05:21:57;1.35;;;0.50;;
36789;SDS011;22740;52.182;8.780;2022-12-29T05:27:59;0.82;;;0.50;;
36789;SDS011;22740;52.182;8.780;2022-12-29T05:34:01;6.07;;;0.80;;
36789;SDS011;22740;52.182;8.780;2022-12-29T05:40:05;2.93;;;0.70;;
36789;SDS011;22740;52.182;8.780;2022-12-29T05:46:07;1.77;;;0.47;;
36789;SDS011;22740;52.182;8.780;2022-12-29T05:52:09;0.80;;;0.40;;
36789;SDS011;22740;52.182;8.780;2022-12-29T05:58:11;1.10;;;0.30;;
36789;SDS011;22740;52.182;8.780;2022-12-29T06:04:13;0.45;;;0.30;;
36789;SDS011;22740;52.182;8.780;2022-12-29T06:10:15;1.70;;;0.52;;
36789;SDS011;22740;52.182;8.780;2022-12-29T06:16:17;0.70;;;0.32;;
36789;SDS011;22740;52.182;8.780;2022-12-29T06:22:19;2.38;;;0.55;;
36789;SDS011;22740;52.182;8.780;2022-12-29T06:28:21;0.70;;;0.47;;
36789;SDS011;22740;52.182;8.780;2022-12-29T06:34:26;2.28;;;0.45;;
36789;SDS011;22740;52.182;8.780;2022-12-29T06:40:28;2.13;;;0.30;;
36789;SDS011;22740;52.182;8.780;2022-12-29T06:46:30;0.32;;;0.20;;
36789;SDS011;22740;52.182;8.780;2022-12-29T06:52:32;1.13;;;0.30;;
36789;SDS011;22740;52.182;8.780;2022-12-29T06:58:33;3.05;;;0.30;;
36789;SDS011;22740;52.182;8.780;2022-12-29T07:04:35;1.55;;;0.28;;
36789;SDS011;22740;52.182;8.780;2022-12-29T07:10:37;1.17;;;0.40;;
36789;SDS011;22740;52.182;8.780;2022-12-29T07:16:39;0.52;;;0.30;;
36789;SDS011;22740;52.182;8.780;2022-12-29T07:22:41;3.75;;;0.50;;
36789;SDS011;22740;52.182;8.780;2022-12-29T07:28:43;1.27;;;0.57;;
36789;SDS011;22740;52.182;8.780;2022-12-29T07:34:45;2.28;;;0.70;;
36789;SDS011;22740;52.182;8.780;2022-12-29T07:40:48;2.92;;;0.60;;
36789;SDS011;22740;52.182;8.780;2022-12-29T07:46:50;7.20;;;0.75;;
36789;SDS011;22740;52.182;8.780;2022-12-29T07:52:56;4.18;;;0.80;;
36789;SDS011;22740;52.182;8.780;2022-12-29T07:58:58;4.53;;;1.20;;
36789;SDS011;22740;52.182;8.780;2022-12-29T08:05:00;3.95;;;0.88;;
36789;SDS011;22740;52.182;8.780;2022-12-29T08:11:02;2.72;;;0.70;;
36789;SDS011;22740;52.182;8.780;2022-12-29T08:17:06;6.00;;;0.90;;
36789;SDS011;22740;52.182;8.780;2022-12-29T08:23:08;6.18;;;1.00;;
36789;SDS011;22740;52.182;8.780;2022-12-29T08:29:10;2.72;;;0.68;;
36789;SDS011;22740;52.182;8.780;2022-12-29T08:35:12;3.88;;;0.80;;
36789;SDS011;22740;52.182;8.780;2022-12-29T08:41:17;3.25;;;0.70;;
36789;SDS011;22740;52.182;8.780;2022-12-29T08:47:19;2.05;;;0.57;;
36789;SDS011;22740;52.182;8.780;2022-12-29T08:53:21;4.05;;;0.75;;
36789;SDS011;22740;52.182;8.780;2022-12-29T08:59:23;5.13;;;0.82;;
36789;SDS011;22740;52.182;8.780;2022-12-29T09:05:24;3.60;;;0.80;;
36789;SDS011;22740;52.182;8.780;2022-12-29T09:11:26;3.72;;;0.93;;
36789;SDS011;22740;52.182;8.780;2022-12-29T09:17:28;4.07;;;0.90;;
36789;SDS011;22740;52.182;8.780;2022-12-29T09:23:42;4.20;;;0.65;;
36789;SDS011;22740;52.182;8.780;2022-12-29T09:29:44;2.58;;;0.77;;
36789;SDS011;22740;52.182;8.780;2022-12-29T09:35:49;2.90;;;0.80;;
36789;SDS011;22740;52.182;8.780;2022-12-29T09:48:33;3.65;;;1.00;;
36789;SDS011;22740;52.182;8.780;2022-12-29T09:54:47;4.55;;;1.00;;
36789;SDS011;22740;52.182;8.780;2022-12-29T10:01:07;4.18;;;0.80;;
36789;SDS011;22740;52.182;8.780;2022-12-29T10:07:40;3.70;;;0.93;;
36789;SDS011;22740;52.182;8.780;2022-12-29T10:26:53;3.55;;;0.90;;
36789;SDS011;22740;52.182;8.780;2022-12-29T10:33:01;4.05;;;0.82;;
36789;SDS011;22740;52.182;8.780;2022-12-29T10:45:14;5.25;;;1.05;;
36789;SDS011;22740;52.182;8.780;2022-12-29T10:51:24;2.90;;;0.98;;
36789;SDS011;22740;52.182;8.780;2022-12-29T10:57:32;5.93;;;0.95;;
36789;SDS011;22740;52.182;8.780;2022-12-29T11:03:44;5.93;;;1.17;;
36789;SDS011;22740;52.182;8.780;2022-12-29T11:10:20;7.32;;;1.08;;
36789;SDS011;22740;52.182;8.780;2022-12-29T11:16:42;6.95;;;1.00;;
36789;SDS011;22740;52.182;8.780;2022-12-29T11:22:45;5.13;;;1.00;;
36789;SDS011;22740;52.182;8.780;2022-12-29T11:35:17;5.60;;;0.90;;
36789;SDS011;22740;52.182;8.780;2022-12-29T11:41:38;4.20;;;1.08;;
36789;SDS011;22740;52.182;8.780;2022-12-29T11:47:41;8.13;;;1.30;;
36789;SDS011;22740;52.182;8.780;2022-12-29T11:53:47;7.32;;;1.10;;
36789;SDS011;22740;52.182;8.780;2022-12-29T11:59:55;5.88;;;1.00;;
36789;SDS011;22740;52.182;8.780;2022-12-29T12:06:00;6.65;;;1.00;;
36789;SDS011;22740;52.182;8.780;2022-12-29T12:12:03;8.82;;;0.82;;
36789;SDS011;22740;52.182;8.780;2022-12-29T12:18:11;4.90;;;1.00;;
36789;SDS011;22740;52.182;8.780;2022-12-29T12:30:40;4.65;;;1.30;;
36789;SDS011;22740;52.182;8.780;2022-12-29T12:56:03;5.90;;;1.10;;
36789;SDS011;22740;52.182;8.780;2022-12-29T13:08:49;4.60;;;1.15;;
36789;SDS011;22740;52.182;8.780;2022-12-29T13:40:40;5.78;;;0.98;;
36789;SDS011;22740;52.182;8.780;2022-12-29T13:46:46;6.03;;;1.23;;
36789;SDS011;22740;52.182;8.780;2022-12-29T13:53:05;4.87;;;1.23;;
36789;SDS011;22740;52.182;8.780;2022-12-29T14:05:29;4.82;;;1.20;;
36789;SDS011;22740;52.182;8.780;2022-12-29T14:11:32;6.50;;;1.17;;
36789;SDS011;22740;52.182;8.780;2022-12-29T14:23:41;3.88;;;0.85;;
36789;SDS011;22740;52.182;8.780;2022-12-29T14:29:45;10.88;;;2.10;;
36789;SDS011;22740;52.182;8.780;2022-12-29T14:35:51;5.97;;;1.20;;
36789;SDS011;22740;52.182;8.780;2022-12-29T14:42:00;6.97;;;1.00;;
36789;SDS011;22740;52.182;8.780;2022-12-29T15:00:34;6.40;;;1.23;;
36789;SDS011;22740;52.182;8.780;2022-12-29T15:06:38;4.78;;;1.15;;
36789;SDS011;22740;52.182;8.780;2022-12-29T15:12:47;9.27;;;1.77;;
36789;SDS011;22740;52.182;8.780;2022-12-29T15:18:53;6.88;;;1.00;;
36789;SDS011;22740;52.182;8.780;2022-12-29T15:24:56;12.18;;;1.75;;
36789;SDS011;22740;52.182;8.780;2022-12-29T15:31:03;6.80;;;1.63;;
36789;SDS011;22740;52.182;8.780;2022-12-29T15:37:07;5.05;;;1.40;;
36789;SDS011;22740;52.182;8.780;2022-12-29T15:43:13;8.85;;;1.55;;
36789;SDS011;22740;52.182;8.780;2022-12-29T15:49:35;5.90;;;1.42;;
36789;SDS011;22740;52.182;8.780;2022-12-29T15:55:38;7.95;;;1.50;;
36789;SDS011;22740;52.182;8.780;2022-12-29T16:01:42;5.57;;;1.40;;
36789;SDS011;22740;52.182;8.780;2022-12-29T16:07:55;4.68;;;1.10;;
36789;SDS011;22740;52.182;8.780;2022-12-29T16:13:59;3.75;;;1.10;;
36789;SDS011;22740;52.182;8.780;2022-12-29T16:20:03;7.68;;;1.35;;
36789;SDS011;22740;52.182;8.780;2022-12-29T16:26:15;10.27;;;1.50;;
36789;SDS011;22740;52.182;8.780;2022-12-29T16:32:29;5.73;;;1.30;;
36789;SDS011;22740;52.182;8.780;2022-12-29T16:38:33;5.93;;;1.25;;
36789;SDS011;22740;52.182;8.780;2022-12-29T16:44:35;7.57;;;1.75;;
36789;SDS011;22740;52.182;8.780;2022-12-29T16:50:37;6.05;;;1.45;;
36789;SDS011;22740;52.182;8.780;2022-12-29T16:56:42;4.90;;;1.60;;
36789;SDS011;22740;52.182;8.780;2022-12-29T17:02:45;7.68;;;1.23;;
36789;SDS011;22740;52.182;8.780;2022-12-29T17:08:50;7.82;;;1.27;;
36789;SDS011;22740;52.182;8.780;2022-12-29T17:14:54;5.57;;;1.05;;
36789;SDS011;22740;52.182;8.780;2022-12-29T17:20:59;6.15;;;1.20;;
36789;SDS011;22740;52.182;8.780;2022-12-29T17:27:03;5.65;;;0.93;;
36789;SDS011;22740;52.182;8.780;2022-12-29T17:33:06;4.28;;;0.98;;
36789;SDS011;22740;52.182;8.780;2022-12-29T17:39:13;3.58;;;0.82;;
36789;SDS011;22740;52.182;8.780;2022-12-29T17:45:33;1.85;;;0.70;;
36789;SDS011;22740;52.182;8.780;2022-12-29T17:51:35;6.45;;;1.17;;
36789;SDS011;22740;52.182;8.780;2022-12-29T17:57:38;5.30;;;1.50;;
36789;SDS011;22740;52.182;8.780;2022-12-29T18:03:39;6.38;;;2.20;;
36789;SDS011;22740;52.182;8.780;2022-12-29T18:09:41;5.15;;;1.98;;
36789;SDS011;22740;52.182;8.780;2022-12-29T18:15:43;5.57;;;2.08;;
36789;SDS011;22740;52.182;8.780;2022-12-29T18:21:45;6.32;;;2.03;;
36789;SDS011;22740;52.182;8.780;2022-12-29T18:27:47;7.82;;;1.90;;
36789;SDS011;22740;52.182;8.780;2022-12-29T18:33:49;6.72;;;1.92;;
36789;SDS011;22740;52.182;8.780;2022-12-29T18:39:52;4.35;;;1.38;;
36789;SDS011;22740;52.182;8.780;2022-12-29T18:45:54;6.38;;;1.60;;
36789;SDS011;22740;52.182;8.780;2022-12-29T18:51:56;5.57;;;1.30;;
36789;SDS011;22740;52.182;8.780;2022-12-29T18:57:57;7.38;;;1.20;;
36789;SDS011;22740;52.182;8.780;2022-12-29T19:03:59;4.50;;;1.05;;
36789;SDS011;22740;52.182;8.780;2022-12-29T19:10:01;7.10;;;0.88;;
36789;SDS011;22740;52.182;8.780;2022-12-29T19:16:03;5.50;;;1.20;;
36789;SDS011;22740;52.182;8.780;2022-12-29T19:22:06;2.03;;;0.75;;
36789;SDS011;22740;52.182;8.780;2022-12-29T19:28:14;4.22;;;0.50;;
36789;SDS011;22740;52.182;8.780;2022-12-29T19:34:18;2.92;;;0.75;;
36789;SDS011;22740;52.182;8.780;2022-12-29T19:40:21;4.60;;;0.80;;
36789;SDS011;22740;52.182;8.780;2022-12-29T19:46:25;4.43;;;0.82;;
36789;SDS011;22740;52.182;8.780;2022-12-29T19:52:27;3.17;;;1.65;;
36789;SDS011;22740;52.182;8.780;2022-12-29T19:58:30;7.55;;;2.38;;
36789;SDS011;22740;52.182;8.780;2022-12-29T20:04:33;5.07;;;1.00;;
36789;SDS011;22740;52.182;8.780;2022-12-29T20:10:38;4.20;;;0.90;;
36789;SDS011;22740;52.182;8.780;2022-12-29T20:16:40;5.68;;;1.17;;
36789;SDS011;22740;52.182;8.780;2022-12-29T20:23:02;3.90;;;0.80;;
36789;SDS011;22740;52.182;8.780;2022-12-29T20:29:04;4.90;;;0.95;;
36789;SDS011;22740;52.182;8.780;2022-12-29T20:35:05;5.00;;;1.20;;
36789;SDS011;22740;52.182;8.780;2022-12-29T20:41:08;6.68;;;1.38;;
36789;SDS011;22740;52.182;8.780;2022-12-29T20:47:10;6.65;;;1.75;;
36789;SDS011;22740;52.182;8.780;2022-12-29T20:53:12;11.50;;;2.28;;
36789;SDS011;22740;52.182;8.780;2022-12-29T20:59:14;7.38;;;1.75;;
36789;SDS011;22740;52.182;8.780;2022-12-29T21:05:31;9.23;;;1.83;;
36789;SDS011;22740;52.182;8.780;2022-12-29T21:11:36;12.07;;;1.58;;
36789;SDS011;22740;52.182;8.780;2022-12-29T21:17:38;6.45;;;1.70;;
36789;SDS011;22740;52.182;8.780;2022-12-29T21:23:41;8.32;;;2.33;;
36789;SDS011;22740;52.182;8.780;2022-12-29T21:29:43;12.52;;;2.35;;
36789;SDS011;22740;52.182;8.780;2022-12-29T21:35:45;8.50;;;1.83;;
36789;SDS011;22740;52.182;8.780;2022-12-29T21:41:48;8.73;;;2.30;;
36789;SDS011;22740;52.182;8.780;2022-12-29T21:47:54;14.77;;;2.40;;
36789;SDS011;22740;52.182;8.780;2022-12-29T21:54:22;9.77;;;1.83;;
36789;SDS011;22740;52.182;8.780;2022-12-29T22:00:43;13.45;;;2.08;;
36789;SDS011;22740;52.182;8.780;2022-12-29T22:07:04;12.63;;;1.90;;
36789;SDS011;22740;52.182;8.780;2022-12-29T22:13:25;11.02;;;1.90;;
36789;SDS011;22740;52.182;8.780;2022-12-29T22:19:27;8.65;;;1.90;;
36789;SDS011;22740;52.182;8.780;2022-12-29T22:25:29;11.82;;;2.47;;
36789;SDS011;22740;52.182;8.780;2022-12-29T22:31:31;14.27;;;2.25;;
36789;SDS011;22740;52.182;8.780;2022-12-29T22:37:34;11.50;;;2.20;;
36789;SDS011;22740;52.182;8.780;2022-12-29T22:43:37;15.52;;;2.35;;
36789;SDS011;22740;52.182;8.780;2022-12-29T22:49:39;12.68;;;2.33;;
36789;SDS011;22740;52.182;8.780;2022-12-29T22:55:40;11.43;;;2.33;;
36789;SDS011;22740;52.182;8.780;2022-12-29T23:01:42;13.73;;;1.75;;
36789;SDS011;22740;52.182;8.780;2022-12-29T23:07:44;13.43;;;2.28;;
36789;SDS011;22740;52.182;8.780;2022-12-29T23:13:46;11.32;;;1.95;;
36789;SDS011;22740;52.182;8.780;2022-12-29T23:19:48;11.13;;;2.05;;
36789;SDS011;22740;52.182;8.780;2022-12-29T23:25:50;9.00;;;2.38;;
36789;SDS011;22740;52.182;8.780;2022-12-29T23:31:52;9.70;;;2.05;;
36789;SDS011;22740;52.182;8.780;2022-12-29T23:37:54;10.70;;;2.00;;
36789;SDS011;22740;52.182;8.780;2022-12-29T23:43:56;10.48;;;1.98;;
36789;SDS011;22740;52.182;8.780;2022-12-29T23:49:58;10.68;;;2.03;;
36789;SDS011;22740;52.182;8.780;2022-12-29T23:55:59;12.98;;;3.45;;
